Time;durP1;ratioP1;P1;durP2;ratioP2;P2;SDS_P1;SDS_P2;PMS_P1;PMS_P2;Temp;Humidity;BMP_temperature;BMP_pressure;BME280_temperature;BME280_humidity;BME280_pressure;Samples;Min_cycle;Max_cycle;Signal;HPM_P1;HPM_P2
2022/05/31 00:01:48;;;;;;;4.33;3.53;;;;;;;;;;5013625;28;20982;-68
2022/05/31 00:04:15;;;;;;;4.20;2.90;;;10.70;99.90;;;;;;5008803;28;20177;-69
2022/05/31 00:06:42;;;;;;;5.93;3.43;;;10.70;99.90;;;;;;5009447;28;20485;-69
2022/05/31 00:09:08;;;;;;;5.70;3.37;;;10.70;99.90;;;;;;5007995;28;20430;-69
2022/05/31 00:11:35;;;;;;;4.40;3.47;;;10.80;99.90;;;;;;5009908;28;20399;-70
2022/05/31 00:14:02;;;;;;;5.17;3.73;;;10.80;99.90;;;;;;5008978;28;20465;-69
2022/05/31 00:16:27;;;;;;;5.47;3.70;;;10.80;99.90;;;;;;5009602;28;20435;-70
2022/05/31 00:18:53;;;;;;;6.40;3.60;;;;;;;;;;5008014;28;20434;-69
2022/05/31 00:21:19;;;;;;;4.47;3.57;;;;;;;;;;5008892;28;20203;-69
2022/05/31 00:23:45;;;;;;;4.90;3.73;;;;;;;;;;5008985;28;20403;-68
2022/05/31 00:26:11;;;;;;;17.13;3.10;;;;;;;;;;5011420;28;20725;-68
2022/05/31 00:28:37;;;;;;;6.03;3.13;;;;;;;;;;5012073;28;20411;-70
2022/05/31 00:31:04;;;;;;;3.33;3.03;;;;;;;;;;5012259;28;20403;-70
2022/05/31 00:33:30;;;;;;;5.97;3.43;;;;;;;;;;5012445;28;20172;-68
2022/05/31 00:35:56;;;;;;;4.70;3.83;;;;;;;;;;5012305;28;20786;-70
2022/05/31 00:38:22;;;;;;;4.47;3.57;;;;;;;;;;5001033;28;20528;-71
2022/05/31 00:40:48;;;;;;;3.40;3.10;;;;;;;;;;5009283;28;20403;-68
2022/05/31 00:43:20;;;;;;;6.77;3.23;;;;;;;;;;5012218;28;20485;-70
2022/05/31 00:45:48;;;;;;;4.57;3.00;;;;;;;;;;5012271;28;20403;-68
2022/05/31 00:48:16;;;;;;;3.43;3.10;;;;;;;;;;5011735;28;20506;-70
2022/05/31 00:50:47;;;;;;;5.70;3.47;;;;;;;;;;5002431;28;20893;-69
2022/05/31 00:53:25;;;;;;;6.40;3.07;;;;;;;;;;4992940;28;20415;-69
2022/05/31 00:55:53;;;;;;;3.80;3.17;;;;;;;;;;4992330;28;20408;-69
2022/05/31 00:58:22;;;;;;;8.03;3.60;;;;;;;;;;4991617;28;20938;-68
2022/05/31 01:00:50;;;;;;;4.73;3.30;;;;;;;;;;5003536;28;20419;-69
2022/05/31 01:03:19;;;;;;;3.50;3.20;;;;;;;;;;5011909;28;20636;-69
2022/05/31 01:05:45;;;;;;;5.17;3.50;;;;;;;;;;5011142;28;20407;-68
2022/05/31 01:08:11;;;;;;;4.40;3.30;;;;;;;;;;5011185;28;20428;-68
2022/05/31 01:10:38;;;;;;;4.00;3.30;;;;;;;;;;5011049;28;20406;-69
2022/05/31 01:13:04;;;;;;;4.70;3.53;;;;;;;;;;5011515;28;20834;-69
2022/05/31 01:15:30;;;;;;;8.27;3.80;;;;;;;;;;5010252;28;20443;-68
2022/05/31 01:17:56;;;;;;;4.50;3.00;;;;;;;;;;5011166;28;20530;-68
2022/05/31 01:20:22;;;;;;;7.10;3.07;;;;;;;;;;5010644;28;20491;-70
2022/05/31 01:22:50;;;;;;;3.10;2.80;;;;;;;;;;5011689;28;20491;-68
2022/05/31 01:25:23;;;;;;;5.97;3.10;;;;;;;;;;5011772;28;20404;-68
2022/05/31 01:28:08;;;;;;;6.67;3.63;;;;;;;;;;5010017;28;20546;-68
2022/05/31 01:30:36;;;;;;;9.03;6.20;;;;;;;;;;5011979;28;20822;-68
2022/05/31 01:33:12;;;;;;;3.83;3.50;;;;;;;;;;5012031;28;20403;-69
2022/05/31 01:35:38;;;;;;;3.73;3.20;;;;;;;;;;5011228;28;20395;-70
2022/05/31 01:38:07;;;;;;;4.60;3.40;;;;;;;;;;4981691;28;20487;-69
2022/05/31 01:40:33;;;;;;;4.20;3.80;;;;;;;;;;4973731;28;20424;-69
2022/05/31 01:42:59;;;;;;;3.67;3.37;;;;;;;;;;4971480;28;20461;-67
2022/05/31 01:45:27;;;;;;;2.80;2.57;;;;;;;;;;4972116;28;20411;-68
2022/05/31 01:47:56;;;;;;;5.90;3.50;;;;;;;;;;4971640;28;21114;-70
2022/05/31 01:50:22;;;;;;;7.00;3.97;;;;;;;;;;4977372;28;20409;-68
2022/05/31 01:52:50;;;;;;;4.20;3.33;;;;;;;;;;4991582;28;20514;-68
2022/05/31 01:55:16;;;;;;;5.10;3.30;;;;;;;;;;4991613;28;20409;-68
2022/05/31 01:57:43;;;;;;;3.97;3.57;;;;;;;;;;4991096;28;20432;-68
2022/05/31 02:00:11;;;;;;;4.90;3.90;;;;;;;;;;4993219;28;20485;-68
2022/05/31 02:02:37;;;;;;;3.67;3.37;;;;;;;;;;5002832;28;20547;-68
2022/05/31 02:05:03;;;;;;;3.80;3.23;;;;;;;;;;5010117;28;20427;-69
2022/05/31 02:07:30;;;;;;;4.50;3.60;;;;;;;;;;5010435;28;20573;-68
2022/05/31 02:09:57;;;;;;;5.83;3.20;;;;;;;;;;5010572;28;20415;-68
2022/05/31 02:12:24;;;;;;;5.80;3.50;;;;;;;;;;5011030;28;20414;-68
2022/05/31 02:14:50;;;;;;;5.20;3.37;;;;;;;;;;5010499;28;20821;-69
2022/05/31 02:17:16;;;;;;;3.40;3.00;;;;;;;;;;5010613;28;20435;-68
2022/05/31 02:19:43;;;;;;;3.67;3.00;;;;;;;;;;5009301;28;20481;-68
2022/05/31 02:22:10;;;;;;;5.20;3.70;;;;;;;;;;5010127;28;20451;-69
2022/05/31 02:24:37;;;;;;;5.33;3.87;;;;;;;;;;5010523;28;20403;-69
2022/05/31 02:27:04;;;;;;;4.07;3.67;;;;;;;;;;5009934;28;20923;-69
2022/05/31 02:29:33;;;;;;;9.10;3.80;;;10.20;99.90;;;;;;5009425;28;20414;-68
2022/05/31 02:32:00;;;;;;;4.20;3.40;;;10.20;99.90;;;;;;5010735;28;20442;-68
2022/05/31 02:34:30;;;;;;;3.97;3.67;;;10.20;99.90;;;;;;5009343;28;20415;-68
2022/05/31 02:36:56;;;;;;;6.20;3.83;;;10.00;99.90;;;;;;5002513;28;20465;-67
2022/05/31 02:39:21;;;;;;;6.27;4.50;;;10.00;99.90;;;;;;4989859;28;21195;-67
2022/05/31 02:41:48;;;;;;;7.43;4.53;;;10.10;99.90;;;;;;4990563;28;20200;-67
2022/05/31 02:44:14;;;;;;;6.93;5.67;;;10.20;99.90;;;;;;4990038;28;20176;-67
2022/05/31 02:46:41;;;;;;;5.97;4.47;;;10.10;99.90;;;;;;4991094;28;20531;-67
2022/05/31 02:49:07;;;;;;;6.87;5.20;;;10.10;99.90;;;;;;4989400;28;20419;-68
2022/05/31 02:51:35;;;;;;;4.97;4.20;;;10.00;99.90;;;;;;4991009;28;20912;-67
2022/05/31 02:54:01;;;;;;;10.10;4.80;;;10.00;99.90;;;;;;4990368;28;20412;-67
2022/05/31 02:56:26;;;;;;;5.60;4.83;;;10.00;99.90;;;;;;4990613;28;20473;-67
2022/05/31 02:58:52;;;;;;;7.77;6.17;;;9.90;99.90;;;;;;4988973;28;20512;-67
2022/05/31 03:01:30;;;;;;;5.53;4.77;;;9.80;99.90;;;;;;5007203;28;20196;-70
2022/05/31 03:03:55;;;;;;;9.83;6.43;;;9.80;99.90;;;;;;5010076;28;20164;-68
2022/05/31 03:06:22;;;;;;;5.70;4.90;;;9.80;99.90;;;;;;5011484;28;20416;-67
2022/05/31 03:08:48;;;;;;;8.97;7.10;;;9.80;99.90;;;;;;5013756;28;20168;-67
2022/05/31 03:11:19;;;;;;;12.07;7.33;;;9.80;99.90;;;;;;5017850;28;20483;-67
2022/05/31 03:13:47;;;;;;;5.57;4.40;;;9.80;99.90;;;;;;5018974;28;20454;-67
2022/05/31 03:16:15;;;;;;;8.27;6.50;;;9.80;99.90;;;;;;5017622;28;20459;-67
2022/05/31 03:18:46;;;;;;;7.43;6.70;;;9.90;99.90;;;;;;5014862;28;20757;-67
2022/05/31 03:21:18;;;;;;;4.13;3.63;;;9.90;99.90;;;;;;5014265;28;20502;-67
2022/05/31 03:23:47;;;;;;;8.23;4.70;;;9.90;99.90;;;;;;5018909;28;20889;-69
2022/05/31 03:26:16;;;;;;;4.20;3.80;;;9.70;99.90;;;;;;5019760;28;20773;-68
2022/05/31 03:28:42;;;;;;;6.20;5.20;;;9.50;99.90;;;;;;5019926;28;20543;-67
2022/05/31 03:31:09;;;;;;;7.30;4.20;;;9.60;1.00;;;;;;5017983;28;20453;-69
2022/05/31 03:33:34;;;;;;;4.80;4.17;;;9.70;99.90;;;;;;5015888;28;20400;-68
2022/05/31 03:36:00;;;;;;;7.50;4.40;;;9.70;99.90;;;;;;5011300;28;20430;-68
2022/05/31 03:38:26;;;;;;;7.70;5.40;;;9.80;99.90;;;;;;4996344;28;20189;-68
2022/05/31 03:40:58;;;;;;;10.67;5.30;;;9.90;99.90;;;;;;4995096;28;20165;-67
2022/05/31 03:43:25;;;;;;;4.70;4.10;;;10.00;99.90;;;;;;4995651;28;20599;-67
2022/05/31 03:45:51;;;;;;;6.00;5.00;;;10.10;99.90;;;;;;5002137;28;20715;-68
2022/05/31 03:48:17;;;;;;;6.90;5.37;;;10.30;99.90;;;;;;5000953;28;20514;-68
2022/05/31 03:50:42;;;;;;;4.50;3.87;;;10.50;99.90;;;;;;5001718;28;20279;-67
2022/05/31 03:53:10;;;;;;;5.83;5.23;;;10.70;99.90;;;;;;5001652;28;20269;-67
2022/05/31 03:55:41;;;;;;;7.03;4.50;;;10.80;99.90;;;;;;5000360;28;20264;-67
2022/05/31 03:58:07;;;;;;;5.40;4.90;;;10.90;99.90;;;;;;4997629;28;20436;-67
2022/05/31 04:00:33;;;;;;;7.23;4.73;;;11.00;99.90;;;;;;5011060;28;20426;-68
2022/05/31 04:02:59;;;;;;;5.50;4.27;;;10.90;99.90;;;;;;5024627;28;20506;-68
2022/05/31 04:05:25;;;;;;;10.03;6.60;;;10.70;99.90;;;;;;5025002;28;20283;-68
2022/05/31 04:07:51;;;;;;;12.43;4.60;;;10.70;99.90;;;;;;5024779;28;20251;-67
2022/05/31 04:10:17;;;;;;;6.10;4.90;;;10.90;99.90;;;;;;5072215;22;20699;-67
2022/05/31 04:12:43;;;;;;;8.20;5.60;;;11.40;99.90;;;;;;5020895;28;20445;-67
2022/05/31 04:15:08;;;;;;;10.43;4.50;;;11.90;99.90;;;;;;5022339;28;20164;-67
2022/05/31 04:17:34;;;;;;;4.13;3.73;;;11.90;99.90;;;;;;5024353;28;20192;-67
2022/05/31 04:20:00;;;;;;;7.60;4.50;;;12.00;99.90;;;;;;5020623;28;20173;-68
2022/05/31 04:22:25;;;;;;;4.47;3.70;;;11.80;99.90;;;;;;5019985;28;20203;-67
2022/05/31 04:24:54;;;;;;;6.90;4.00;;;12.00;99.90;;;;;;5019110;28;20505;-66
2022/05/31 04:27:21;;;;;;;4.20;3.60;;;12.50;99.90;;;;;;5023936;28;20212;-66
2022/05/31 04:29:47;;;;;;;8.67;3.87;;;13.00;99.90;;;;;;5024868;28;20408;-67
2022/05/31 04:32:15;;;;;;;8.77;4.10;;;13.20;99.90;;;;;;5019449;28;20450;-67
2022/05/31 04:34:42;;;;;;;6.50;4.37;;;13.40;99.90;;;;;;5015595;28;20507;-67
2022/05/31 04:37:09;;;;;;;6.17;4.10;;;13.40;99.90;;;;;;5018657;28;20438;-67
2022/05/31 04:39:34;;;;;;;5.23;4.10;;;13.80;99.90;;;;;;5027170;28;20486;-67
2022/05/31 04:42:00;;;;;;;7.57;4.60;;;14.40;99.90;;;;;;5039934;28;20553;-67
2022/05/31 04:44:26;;;;;;;3.70;3.40;;;14.90;99.90;;;;;;5032353;28;20258;-66
2022/05/31 04:46:52;;;;;;;5.00;4.00;;;15.40;98.10;;;;;;5031278;28;20224;-67
2022/05/31 04:49:18;;;;;;;4.63;4.23;;;15.40;95.60;;;;;;4996925;28;20310;-65
2022/05/31 04:51:43;;;;;;;7.10;4.87;;;15.80;94.00;;;;;;5010221;28;20984;-67
2022/05/31 04:54:10;;;;;;;5.50;4.30;;;15.80;92.40;;;;;;5012207;28;20187;-67
2022/05/31 04:56:35;;;;;;;4.07;3.67;;;15.60;90.00;;;;;;5012056;28;20901;-67
2022/05/31 04:59:02;;;;;;;4.80;4.40;;;15.80;89.90;;;;;;5010979;28;20415;-67
2022/05/31 05:01:28;;;;;;;4.47;4.03;;;15.50;84.60;;;;;;5021414;28;20215;-68
2022/05/31 05:03:54;;;;;;;5.83;5.33;;;;;;;;;;5011456;28;20395;-67
2022/05/31 05:06:21;;;;;;;5.73;5.23;;;;;;;;;;5011194;28;20222;-67
2022/05/31 05:08:47;;;;;;;4.93;4.47;;;14.70;90.20;;;;;;5010213;28;20962;-68
2022/05/31 05:11:18;;;;;;;7.70;5.40;;;13.70;84.20;;;;;;5010110;28;20447;-67
2022/05/31 05:13:44;;;;;;;8.20;4.30;;;13.40;83.30;;;;;;5010946;28;20418;-67
2022/05/31 05:16:11;;;;;;;6.63;4.97;;;13.00;85.30;;;;;;5011370;28;20486;-66
2022/05/31 05:18:38;;;;;;;7.77;5.60;;;14.00;90.40;;;;;;5012007;28;21032;-67
2022/05/31 05:21:08;;;;;;;5.67;5.07;;;14.80;90.00;;;;;;5014929;28;20404;-66
2022/05/31 05:23:34;;;;;;;5.60;4.53;;;15.50;87.60;;;;;;5010677;28;20419;-66
2022/05/31 05:26:00;;;;;;;5.30;4.80;;;15.80;81.40;;;;;;5011041;28;20437;-68
2022/05/31 05:31:30;;;;;;;7.17;5.80;;;16.20;82.00;;;;;;5009207;28;20477;-68
2022/05/31 05:33:57;;;;;;;5.10;4.60;;;17.90;76.10;;;;;;5008392;28;20532;-67
2022/05/31 05:36:24;;;;;;;5.40;4.90;;;18.70;69.20;;;;;;5006197;28;20511;-67
2022/05/31 05:38:50;;;;;;;5.40;4.90;;;18.70;61.20;;;;;;5008066;28;20522;-67
2022/05/31 05:41:16;;;;;;;7.63;5.17;;;;;;;;;;5007098;28;20412;-68
2022/05/31 05:43:42;;;;;;;5.70;5.20;;;;;;;;;;4990818;28;20403;-69
2022/05/31 05:46:12;;;;;;;7.70;6.90;;;;;;;;;;5008862;28;20400;-68
2022/05/31 05:48:39;;;;;;;8.93;5.70;;;17.30;54.30;;;;;;5007276;28;20477;-68
2022/05/31 05:51:11;;;;;;;7.27;5.00;;;;;;;;;;4991231;28;20412;-67
2022/05/31 05:53:37;;;;;;;6.80;6.20;;;;;;;;;;5008943;28;20429;-67
2022/05/31 05:56:03;;;;;;;7.20;6.10;;;;;;;;;;5005657;28;21063;-68
2022/05/31 05:58:29;;;;;;;5.47;5.07;;;;;;;;;;4989698;28;20192;-67
2022/05/31 06:00:55;;;;;;;6.07;5.40;;;;;;;;;;5021780;28;20544;-68
2022/05/31 06:03:27;;;;;;;6.70;6.10;;;15.60;55.60;;;;;;5028067;28;20453;-68
2022/05/31 06:05:53;;;;;;;10.27;6.30;;;14.60;51.90;;;;;;5027708;28;20444;-68
2022/05/31 06:08:39;;;;;;;6.43;5.70;;;;;;;;;;5027461;28;20518;-69
2022/05/31 06:11:07;;;;;;;5.47;4.97;;;;;;;;;;5028364;28;20844;-68
2022/05/31 06:13:35;;;;;;;6.03;5.47;;;;;;;;;;5024282;28;20557;-68
2022/05/31 06:16:04;;;;;;;6.17;5.60;;;;;;;;;;5020730;28;20406;-68
2022/05/31 06:18:32;;;;;;;7.47;6.57;;;;;;;;;;5028729;28;20410;-68
2022/05/31 06:21:06;;;;;;;8.63;7.57;;;;;;;;;;5031280;28;20863;-67
2022/05/31 06:23:33;;;;;;;6.30;5.67;;;;;;;;;;5030508;28;20899;-65
2022/05/31 06:25:59;;;;;;;6.17;5.77;;;;;;;;;;5013166;28;20426;-67
2022/05/31 06:28:25;;;;;;;13.57;6.67;;;;;;;;;;5026412;23;20541;-68
2022/05/31 06:30:51;;;;;;;9.20;6.87;;;;;;;;;;5006799;28;20429;-68
2022/05/31 06:33:17;;;;;;;7.20;6.50;;;;;;;;;;5007142;28;20404;-68
2022/05/31 06:35:43;;;;;;;6.40;5.90;;;;;;;;;;5003071;28;20510;-69
2022/05/31 06:38:09;;;;;;;6.50;5.90;;;;;;;;;;5005996;28;20585;-68
2022/05/31 06:40:36;;;;;;;6.60;6.00;;;;;;;;;;5006939;28;20175;-68
2022/05/31 06:43:02;;;;;;;8.43;5.53;;;;;;;;;;5006276;28;20465;-67
2022/05/31 06:45:28;;;;;;;6.80;5.77;;;;;;;;;;4989324;28;20405;-68
2022/05/31 06:47:54;;;;;;;7.20;5.63;;;;;;;;;;4989305;28;20423;-69
2022/05/31 06:50:20;;;;;;;8.90;6.00;;;;;;;;;;4994116;28;21115;-67
2022/05/31 06:58:15;;;;;;;7.20;5.30;;;14.60;56.60;;;;;;5008536;28;21074;-68
2022/05/31 07:00:41;;;;;;;5.97;5.20;;;;;;;;;;5020680;28;20501;-69
2022/05/31 07:03:07;;;;;;;7.10;5.47;;;;;;;;;;5001910;28;20199;-70
2022/05/31 07:05:33;;;;;;;6.77;5.53;;;;;;;;;;5008064;28;20411;-70
2022/05/31 07:07:58;;;;;;;5.43;4.93;;;14.70;89.30;;;;;;5008622;28;20211;-70
2022/05/31 07:10:24;;;;;;;6.30;5.10;;;16.50;63.20;;;;;;5009279;28;20925;-69
2022/05/31 07:12:50;;;;;;;6.80;5.33;;;17.40;58.20;;;;;;5009584;28;20504;-69
2022/05/31 07:15:16;;;;;;;5.00;4.40;;;17.90;59.90;;;;;;5020132;28;20543;-69
2022/05/31 07:17:44;;;;;;;4.83;4.43;;;17.30;58.50;;;;;;5029062;28;20462;-70
2022/05/31 07:20:10;;;;;;;6.47;5.87;;;;;;;;;;5035301;28;20183;-69
2022/05/31 07:22:37;;;;;;;6.57;5.90;;;;;;;;;;5040391;28;20489;-69
2022/05/31 07:25:03;;;;;;;6.30;5.50;;;;;;;;;;5028182;28;20801;-69
2022/05/31 07:27:29;;;;;;;6.30;5.80;;;;;;;;;;5009323;28;20447;-68
2022/05/31 07:29:55;;;;;;;6.53;5.40;;;;;;;;;;5008232;28;20411;-68
2022/05/31 07:32:22;;;;;;;6.40;5.80;;;;;;;;;;5009112;28;20812;-68
2022/05/31 07:34:50;;;;;;;5.63;5.03;;;;;;;;;;5010502;28;20408;-69
2022/05/31 07:37:16;;;;;;;6.40;5.63;;;;;;;;;;5012894;28;20433;-69
2022/05/31 07:39:42;;;;;;;8.20;5.33;;;;;;;;;;5013116;28;20540;-69
2022/05/31 07:42:08;;;;;;;5.73;5.23;;;;;;;;;;5013535;28;20474;-69
2022/05/31 07:44:34;;;;;;;6.60;5.80;;;;;;;;;;5012804;28;20411;-69
2022/05/31 07:47:01;;;;;;;9.07;5.40;;;;;;;;;;5012836;28;20431;-68
2022/05/31 07:49:26;;;;;;;12.23;9.10;;;17.00;69.90;;;;;;5011445;28;20407;-69
2022/05/31 07:51:53;;;;;;;11.30;8.70;;;;;;;;;;5012757;28;20992;-68
2022/05/31 07:54:19;;;;;;;12.60;9.07;;;;;;;;;;5012394;28;20168;-68
2022/05/31 07:56:45;;;;;;;10.20;9.20;;;;;;;;;;5012577;28;20450;-69
2022/05/31 07:59:11;;;;;;;10.10;7.90;;;;;;;;;;5011862;28;20803;-69
2022/05/31 08:01:37;;;;;;;13.10;9.73;;;;;;;;;;5031361;28;20457;-69
2022/05/31 08:04:03;;;;;;;11.70;10.50;;;;;;;;;;5031859;28;21164;-68
2022/05/31 08:06:30;;;;;;;13.00;11.70;;;;;;;;;;5032502;28;20397;-68
2022/05/31 08:08:57;;;;;;;10.60;9.63;;;;;;;;;;5031579;28;20540;-69
2022/05/31 08:11:28;;;;;;;14.93;9.33;;;;;;;;;;5032707;28;20799;-70
2022/05/31 08:13:54;;;;;;;7.93;7.20;;;;;;;;;;5031976;28;20402;-69
2022/05/31 08:16:21;;;;;;;6.00;4.80;;;;;;;;;;5031798;28;20405;-69
2022/05/31 08:18:48;;;;;;;5.03;4.63;;;;;;;;;;5030504;28;20199;-69
2022/05/31 08:21:16;;;;;;;5.57;4.30;;;;;;;;;;5031604;28;20404;-69
2022/05/31 08:23:42;;;;;;;6.20;4.70;;;;;;;;;;5031821;28;20398;-69
2022/05/31 08:26:08;;;;;;;6.60;5.10;;;;;;;;;;5015635;28;20425;-69
2022/05/31 08:28:35;;;;;;;5.10;4.50;;;;;;;;;;5011076;28;20529;-69
2022/05/31 08:31:05;;;;;;;4.77;4.37;;;;;;;;;;5012629;28;20430;-68
2022/05/31 08:33:31;;;;;;;4.60;4.20;;;;;;;;;;5011432;28;20953;-68
2022/05/31 08:35:58;;;;;;;4.83;4.40;;;;;;;;;;5011352;28;20402;-68
2022/05/31 08:38:24;;;;;;;4.80;4.10;;;;;;;;;;5019201;28;20418;-68
2022/05/31 08:40:53;;;;;;;5.00;4.60;;;;;;;;;;5029037;28;20820;-69
2022/05/31 08:43:23;;;;;;;5.00;4.30;;;;;;;;;;5032248;28;20410;-69
2022/05/31 08:45:57;;;;;;;5.97;4.00;;;;;;;;;;5031463;28;20543;-69
2022/05/31 08:48:31;;;;;;;6.50;3.47;;;;;;;;;;5031217;28;20450;-69
2022/05/31 08:57:07;;;;;;;4.40;4.10;;;;;;;;;;4959452;29;20412;-67
2022/05/31 08:59:33;;;;;;;5.97;4.00;;;;;;;;;;4951566;29;20508;-69
2022/05/31 09:02:01;;;;;;;4.13;3.60;;;;;;;;;;4950654;29;20847;-70
2022/05/31 09:04:35;;;;;;;5.03;3.97;;;;;;;;;;4949221;29;20245;-69
2022/05/31 09:07:05;;;;;;;6.70;4.40;;;;;;;;;;4950215;29;20431;-69
2022/05/31 09:09:41;;;;;;;10.50;5.60;;;;;;;;;;4949661;29;20496;-68
2022/05/31 09:12:16;;;;;;;4.80;3.73;;;;;;;;;;4950150;29;20264;-69
2022/05/31 09:14:53;;;;;;;4.63;3.87;;;;;;;;;;4949753;29;21099;-69
2022/05/31 09:17:22;;;;;;;5.40;3.73;;;;;;;;;;4949630;29;20229;-70
2022/05/31 09:19:52;;;;;;;4.00;3.70;;;;;;;;;;4948739;29;20264;-69
2022/05/31 09:22:18;;;;;;;8.10;3.93;;;;;;;;;;4950079;29;20253;-69
2022/05/31 09:24:45;;;;;;;5.37;3.97;;;;;;;;;;4978200;28;20183;-69
2022/05/31 09:27:11;;;;;;;28.60;6.70;;;;;;;;;;5029991;28;20453;-69
2022/05/31 09:29:55;;;;;;;6.93;3.47;;;;;;;;;;5029233;28;20571;-68
2022/05/31 09:32:30;;;;;;;4.40;3.40;;;;;;;;;;5030742;28;20252;-69
2022/05/31 09:35:29;;;;;;;4.00;3.63;;;;;;;;;;5029310;28;20691;-68
2022/05/31 09:38:01;;;;;;;4.10;3.10;;;;;;;;;;4970902;28;20656;-68
2022/05/31 09:40:43;;;;;;;5.10;3.17;;;;;;;;;;5010580;28;20164;-69
2022/05/31 09:43:15;;;;;;;5.72;3.15;;;;;;;;;;5010346;28;20195;-68
2022/05/31 09:45:52;;;;;;;16.65;4.40;;;;;;;;;;5010557;28;20167;-68
2022/05/31 09:48:18;;;;;;;4.18;2.63;;;;;;;;;;5009807;28;20191;-68
2022/05/31 09:50:44;;;;;;;8.35;3.38;;;;;;;;;;5009513;28;20255;-68
2022/05/31 09:58:42;;;;;;;11.73;3.70;;;;;;;;;;5008631;28;20202;-69
2022/05/31 10:01:13;;;;;;;7.95;3.00;;;;;;;;;;5024405;28;20695;-68
2022/05/31 10:03:46;;;;;;;7.30;3.25;;;;;;;;;;5029458;28;20170;-67
2022/05/31 10:06:21;;;;;;;5.47;3.40;;;;;;;;;;5029616;28;20202;-71
2022/05/31 10:08:49;;;;;;;15.73;4.43;;;;;;;;;;5011087;28;20190;-69
2022/05/31 10:11:21;;;;;;;4.17;3.77;;;;;;;;;;5012013;28;20163;-69
2022/05/31 10:13:58;;;;;;;6.30;3.33;;;;;;;;;;5027030;28;20224;-68
2022/05/31 10:16:24;;;;;;;4.10;3.17;;;;;;;;;;5017331;28;20171;-68
2022/05/31 10:18:58;;;;;;;6.23;3.13;;;;;;;;;;5028426;28;20718;-68
2022/05/31 10:21:43;;;;;;;5.55;3.67;;;;;;;;;;5029548;28;20522;-71
2022/05/31 10:24:23;;;;;;;4.30;3.57;;;;;;;;;;5029818;28;20163;-70
2022/05/31 10:27:08;;;;;;;3.05;2.75;;;;;;;;;;5010317;28;20223;-69
2022/05/31 10:29:40;;;;;;;5.03;2.63;;;;;;;;;;5009039;28;20225;-69
2022/05/31 10:32:25;;;;;;;4.28;2.58;;;;;;;;;;5010039;28;20231;-69
2022/05/31 10:35:04;;;;;;;6.28;2.65;;;;;;;;;;5010390;28;20190;-70
2022/05/31 10:37:33;;;;;;;4.13;2.33;;;;;;;;;;5010731;28;20650;-70
2022/05/31 10:40:05;;;;;;;8.82;2.90;;;;;;;;;;5009530;28;20172;-69
2022/05/31 10:42:33;;;;;;;4.03;2.88;;;;;;;;;;5011212;28;20164;-71
2022/05/31 10:45:04;;;;;;;4.80;2.47;;;;;;;;;;5012454;28;20202;-70
2022/05/31 10:47:30;;;;;;;3.90;2.28;;;;;;;;;;5013979;28;20195;-70
2022/05/31 10:49:56;;;;;;;3.85;3.05;;;;;;;;;;5014298;28;20811;-69
2022/05/31 10:52:41;;;;;;;5.37;3.70;;;;;;;;;;5015313;28;20205;-67
2022/05/31 10:55:10;;;;;;;9.33;3.00;;;;;;;;;;5013747;28;20167;-69
2022/05/31 10:57:50;;;;;;;3.42;3.13;;;;;;;;;;5013651;28;20222;-71
2022/05/31 11:00:52;;;;;;;6.20;4.07;;;;;;;;;;5025779;28;20514;-69
2022/05/31 11:03:18;;;;;;;4.13;2.90;;;;;;;;;;4960878;29;20631;-70
2022/05/31 11:05:55;;;;;;;5.38;3.20;;;;;;;;;;5022353;28;20280;-70
2022/05/31 11:11:54;;;;;;;4.30;2.78;;;;;;;;;;5040067;28;20189;-70
2022/05/31 11:14:26;;;;;;;3.15;2.20;;;;;;;;;;5018390;28;20239;-70
2022/05/31 11:17:01;;;;;;;4.35;2.88;;;;;;;;;;5023711;28;20191;-69
2022/05/31 11:19:42;;;;;;;4.45;2.60;;;;;;;;;;5008054;28;20266;-70
2022/05/31 11:22:19;;;;;;;6.28;3.45;;;;;;;;;;5009160;28;20176;-70
2022/05/31 11:25:05;;;;;;;3.95;2.50;;;;;;;;;;5013872;28;20170;-69
2022/05/31 11:27:33;;;;;;;4.22;2.58;;;;;;;;;;5028362;28;20233;-69
2022/05/31 11:30:03;;;;;;;3.53;2.30;;;;;;;;;;5028198;28;20182;-70
2022/05/31 11:32:48;;;;;;;9.73;3.10;;;;;;;;;;5029749;28;20202;-69
2022/05/31 11:35:32;;;;;;;10.43;3.10;;;;;;;;;;5030133;28;20163;-69
2022/05/31 11:38:08;;;;;;;6.33;3.40;;;;;;;;;;5020468;28;20194;-70
2022/05/31 11:40:43;;;;;;;6.63;2.87;;;;;;;;;;5023629;28;20262;-69
2022/05/31 11:43:28;;;;;;;6.83;2.53;;;;;;;;;;5028435;28;20456;-71
2022/05/31 11:45:57;;;;;;;6.43;2.73;;;;;;;;;;5028522;28;20413;-70
2022/05/31 11:48:39;;;;;;;22.40;4.87;;;;;;;;;;5027593;28;20414;-69
2022/05/31 11:51:23;;;;;;;2.40;1.87;;;;;;;;;;5015956;28;20910;-70
2022/05/31 11:54:07;;;;;;;4.70;2.20;;;;;;;;;;5009516;28;21090;-70
2022/05/31 11:56:42;;;;;;;5.60;2.50;;;;;;;;;;5008528;28;20398;-70
2022/05/31 11:59:21;;;;;;;16.23;2.97;;;;;;;;;;5007626;28;20402;-70
2022/05/31 12:02:22;;;;;;;16.97;2.70;;;;;;;;;;4990006;28;20450;-69
2022/05/31 12:04:52;;;;;;;3.83;2.53;;;;;;;;;;4891124;29;20422;-69
2022/05/31 12:07:24;;;;;;;6.27;2.50;;;;;;;;;;4971609;28;20751;-69
2022/05/31 12:10:03;;;;;;;4.20;2.77;;;;;;;;;;4988558;28;20713;-69
2022/05/31 12:12:34;;;;;;;4.97;2.60;;;;;;;;;;4989522;28;20447;-69
2022/05/31 12:15:03;;;;;;;7.60;3.00;;;;;;;;;;4989391;28;20399;-69
2022/05/31 12:17:33;;;;;;;6.80;3.10;;;;;;;;;;4989072;28;20416;-69
2022/05/31 12:20:12;;;;;;;5.50;2.60;;;;;;;;;;4987942;28;20548;-69
2022/05/31 12:22:52;;;;;;;4.17;2.60;;;;;;;;;;4992132;28;20485;-69
2022/05/31 12:25:25;;;;;;;9.10;3.20;;;;;;;;;;5012045;28;20467;-69
2022/05/31 12:28:18;;;;;;;6.73;3.20;;;;;;;;;;5031969;28;20480;-69
2022/05/31 12:30:58;;;;;;;8.97;2.90;;;;;;;;;;5002565;28;20398;-69
2022/05/31 12:33:43;;;;;;;2.73;2.23;;;;;;;;;;5032407;28;20437;-70
2022/05/31 12:36:10;;;;;;;10.50;3.50;;;;;;;;;;5030764;28;20433;-70
2022/05/31 12:38:54;;;;;;;3.40;2.70;;;;;;;;;;5011463;28;20489;-70
2022/05/31 12:41:33;;;;;;;6.47;3.00;;;;;;;;;;5012140;28;20433;-68
2022/05/31 12:44:00;;;;;;;4.60;3.80;;;;;;;;;;5011394;28;20429;-71
2022/05/31 12:46:35;;;;;;;7.50;2.97;;;;;;;;;;4993953;28;20915;-69
2022/05/31 12:49:03;;;;;;;5.40;3.00;;;;;;;;;;5009735;28;20410;-69
2022/05/31 12:51:31;;;;;;;4.40;2.80;;;;;;;;;;5009476;28;20423;-68
2022/05/31 12:53:59;;;;;;;4.53;3.00;;;;;;;;;;5012055;28;20395;-68
2022/05/31 12:56:33;;;;;;;6.37;3.77;;;;;;;;;;5010946;28;20446;-70
2022/05/31 12:59:00;;;;;;;6.17;3.70;;;;;;;;;;5010181;28;20411;-68
2022/05/31 13:01:26;;;;;;;16.87;5.10;;;;;;;;;;5029272;28;20761;-70
2022/05/31 13:03:52;;;;;;;5.57;3.37;;;;;;;;;;5031058;28;20420;-69
2022/05/31 13:06:36;;;;;;;5.43;4.73;;;;;;;;;;5031190;28;20529;-68
2022/05/31 13:09:02;;;;;;;9.77;3.80;;;;;;;;;;5030618;28;20176;-70
2022/05/31 13:19:44;;;;;;;5.70;3.13;;;;;;;;;;5009650;28;20482;-68
2022/05/31 13:22:17;;;;;;;3.30;2.60;;;;;;;;;;5010906;28;20931;-69
2022/05/31 13:24:46;;;;;;;9.90;4.07;;;;;;;;;;5015127;28;20414;-70
2022/05/31 13:27:12;;;;;;;11.40;3.43;;;;;;;;;;5030126;28;20480;-68
2022/05/31 13:29:38;;;;;;;4.17;2.93;;;;;;;;;;5029470;28;20378;-68
2022/05/31 13:32:05;;;;;;;4.47;2.90;;;;;;;;;;5030251;28;20879;-68
2022/05/31 13:34:31;;;;;;;10.43;3.40;;;;;;;;;;5029398;28;20406;-68
2022/05/31 13:36:57;;;;;;;5.97;3.37;;;;;;;;;;5021995;28;20922;-69
2022/05/31 13:39:24;;;;;;;6.80;3.87;;;;;;;;;;5009561;28;20176;-70
2022/05/31 13:41:55;;;;;;;8.00;3.67;;;;;;;;;;5010461;28;20434;-68
2022/05/31 13:44:22;;;;;;;9.17;3.83;;;;;;;;;;5009095;28;20419;-69
2022/05/31 13:46:50;;;;;;;11.03;4.50;;;;;;;;;;5008311;28;20434;-70
2022/05/31 13:49:16;;;;;;;21.03;4.10;;;;;;;;;;5008317;28;20413;-71
2022/05/31 13:51:54;;;;;;;11.40;4.00;;;;;;;;;;5009620;28;20566;-70
2022/05/31 13:54:22;;;;;;;5.23;3.47;;;;;;;;;;5009978;28;20858;-69
2022/05/31 13:56:49;;;;;;;18.40;4.30;;;;;;;;;;5009825;28;20423;-70
2022/05/31 13:59:36;;;;;;;23.13;6.07;;;;;;;;;;5008832;28;20772;-68
2022/05/31 14:02:03;;;;;;;9.87;4.17;;;;;;;;;;4980324;28;20472;-69
2022/05/31 14:04:32;;;;;;;8.83;3.67;;;;;;;;;;4989841;28;20413;-68
2022/05/31 14:06:58;;;;;;;3.80;3.10;;;;;;;;;;4988727;28;20432;-71
2022/05/31 14:09:29;;;;;;;12.20;4.07;;;;;;;;;;4989869;28;20448;-71
2022/05/31 14:11:57;;;;;;;6.97;4.20;;;;;;;;;;4991224;28;20458;-69
2022/05/31 14:14:28;;;;;;;8.97;3.73;;;;;;;;;;4989793;28;20495;-68
2022/05/31 14:16:55;;;;;;;25.87;6.20;;;;;;;;;;4989830;28;20519;-69
2022/05/31 14:19:24;;;;;;;14.47;4.60;;;;;;;;;;4989082;28;20498;-69
2022/05/31 14:21:52;;;;;;;9.27;4.10;;;;;;;;;;4990588;28;20408;-68
2022/05/31 14:24:20;;;;;;;11.43;4.43;;;;;;;;;;4992361;28;20459;-69
2022/05/31 14:26:47;;;;;;;5.57;4.07;;;;;;;;;;5029918;28;20413;-68
2022/05/31 14:29:23;;;;;;;5.30;4.37;;;;;;;;;;5010465;28;20458;-69
2022/05/31 14:32:11;;;;;;;5.60;4.33;;;;;;;;;;5030790;28;20460;-69
2022/05/31 14:34:41;;;;;;;6.30;4.23;;;;;;;;;;5015814;28;20517;-68
2022/05/31 14:37:08;;;;;;;5.23;4.73;;;;;;;;;;5029573;28;20674;-68
2022/05/31 14:39:36;;;;;;;5.70;5.17;;;;;;;;;;5021097;28;20399;-69
2022/05/31 14:42:04;;;;;;;7.60;4.57;;;;;;;;;;5029768;28;20875;-68
2022/05/31 14:44:41;;;;;;;7.43;4.47;;;;;;;;;;5028610;28;20428;-69
2022/05/31 14:47:07;;;;;;;8.20;5.53;;;;;;;;;;5029151;28;20426;-70
2022/05/31 14:49:39;;;;;;;6.60;5.20;;;;;;;;;;5030201;28;20406;-69
2022/05/31 14:52:24;;;;;;;7.30;5.30;;;;;;;;;;5009785;28;20439;-68
2022/05/31 14:54:51;;;;;;;6.00;4.87;;;;;;;;;;5009585;28;20391;-70